Station Historical Data
Daily Summary for January 21, 2017 Units:  English    Metric   Both
« Previous Day
Next Day »
Daily Weekly Monthly Yearly Custom
  High: Low: Average:
Temperature: 60.9 °F 39.6 °F 48.5 °F
Dew Point: 52.4 °F 38.3 °F 45.5 °F
Humidity: 97% 71% 90%
Wind Speed: 6.0mph 0.0mph 1mph
Wind Gust: 13.0mph - -
Wind- - SSE
Pressure: 29.84 in 29.67 in -
Precipitation: 0.00 in    
Historical Graphs
 
 
Tabular Data for January 21, 2017
Time Temperature Dew Point Pressure Wind Wind Speed Wind Gust Humidity Rainfall Rate (Hourly)
00:04 41.7 °F 40.4 °F 29.80 in WSW 5.0 mph 9.0 mph 95% 0.00 in
00:09 41.5 °F 40.2 °F 29.80 in WSW 6.0 mph 11.0 mph 95% 0.00 in
00:14 41.4 °F 40.1 °F 29.81 in WSW 6.0 mph 13.0 mph 95% 0.00 in
00:19 41.3 °F 40.0 °F 29.81 in SW 4.0 mph 11.0 mph 95% 0.00 in
00:24 41.3 °F 40.0 °F 29.81 in SSW 5.0 mph 8.0 mph 95% 0.00 in
00:29 41.1 °F 39.8 °F 29.81 in WSW 5.0 mph 11.0 mph 95% 0.00 in
00:34 40.9 °F 39.6 °F 29.81 in SW 3.0 mph 9.0 mph 95% 0.00 in
00:39 40.7 °F 39.4 °F 29.81 in SW 5.0 mph 9.0 mph 95% 0.00 in
00:44 40.6 °F 39.3 °F 29.81 in SW 5.0 mph 9.0 mph 95% 0.00 in
00:49 40.5 °F 39.2 °F 29.81 in WSW 5.0 mph 9.0 mph 95% 0.00 in
00:54 40.4 °F 39.1 °F 29.81 in SW 5.0 mph 9.0 mph 95% 0.00 in
00:59 40.5 °F 39.2 °F 29.81 in WSW 4.0 mph 7.0 mph 95% 0.00 in
01:04 40.6 °F 39.3 °F 29.82 in WSW 6.0 mph 6.0 mph 95% 0.00 in
01:09 40.5 °F 39.2 °F 29.82 in SSW 2.0 mph 8.0 mph 95% 0.00 in
01:14 40.5 °F 39.2 °F 29.82 in SW 5.0 mph 8.0 mph 95% 0.00 in
01:19 40.5 °F 39.2 °F 29.82 in SSW 4.0 mph 6.0 mph 95% 0.00 in
01:24 40.5 °F 39.2 °F 29.82 in SSW 5.0 mph 7.0 mph 95% 0.00 in
01:29 40.5 °F 39.2 °F 29.83 in SW 5.0 mph 11.0 mph 95% 0.00 in
01:34 40.5 °F 39.2 °F 29.83 in South 2.0 mph 6.0 mph 95% 0.00 in
01:39 40.4 °F 39.1 °F 29.83 in SW 4.0 mph 6.0 mph 95% 0.00 in
01:44 40.3 °F 39.0 °F 29.83 in SW 4.0 mph 8.0 mph 95% 0.00 in
01:49 40.2 °F 38.9 °F 29.83 in SW 4.0 mph 8.0 mph 95% 0.00 in
01:54 40.0 °F 38.7 °F 29.83 in SW 4.0 mph 6.0 mph 95% 0.00 in
01:59 39.9 °F 38.6 °F 29.83 in SW 3.0 mph 6.0 mph 95% 0.00 in
02:04 39.8 °F 38.5 °F 29.83 in SW 4.0 mph 6.0 mph 95% 0.00 in
02:09 39.7 °F 38.4 °F 29.83 in SW 3.0 mph 7.0 mph 95% 0.00 in
02:14 39.7 °F 38.4 °F 29.84 in SW 4.0 mph 7.0 mph 95% 0.00 in
02:19 39.7 °F 38.4 °F 29.84 in SW 4.0 mph 7.0 mph 95% 0.00 in
02:24 39.6 °F 38.3 °F 29.84 in SW 3.0 mph 7.0 mph 95% 0.00 in
02:29 39.7 °F 38.4 °F 29.84 in SW 5.0 mph 5.0 mph 95% 0.00 in
02:34 39.8 °F 38.5 °F 29.84 in WSW 3.0 mph 5.0 mph 95% 0.00 in
02:39 39.8 °F 38.5 °F 29.84 in SW 1.0 mph 4.0 mph 95% 0.00 in
02:44 39.9 °F 38.6 °F 29.83 in WSW 2.0 mph 4.0 mph 95% 0.00 in
02:49 40.0 °F 38.7 °F 29.83 in WSW 3.0 mph 6.0 mph 95% 0.00 in
02:54 40.1 °F 38.8 °F 29.84 in SW 3.0 mph 6.0 mph 95% 0.00 in
02:59 40.2 °F 38.9 °F 29.84 in SW 3.0 mph 5.0 mph 95% 0.00 in
03:04 40.3 °F 39.3 °F 29.84 in SW 6.0 mph 7.0 mph 96% 0.00 in
03:09 40.4 °F 39.4 °F 29.84 in WSW 4.0 mph 7.0 mph 96% 0.00 in
03:14 40.5 °F 39.4 °F 29.84 in WSW 3.0 mph 6.0 mph 96% 0.00 in
03:19 40.6 °F 39.5 °F 29.84 in WSW 3.0 mph 7.0 mph 96% 0.00 in
03:24 40.7 °F 39.6 °F 29.83 in WSW 4.0 mph 7.0 mph 96% 0.00 in
03:29 40.7 °F 39.6 °F 29.83 in SW 4.0 mph 6.0 mph 96% 0.00 in
03:34 40.8 °F 39.7 °F 29.83 in WSW 3.0 mph 5.0 mph 96% 0.00 in
03:39 40.9 °F 39.8 °F 29.83 in WSW 2.0 mph 4.0 mph 96% 0.00 in
03:44 40.9 °F 39.8 °F 29.83 in SW 3.0 mph 5.0 mph 96% 0.00 in
03:49 41.0 °F 39.9 °F 29.83 in SW 2.0 mph 5.0 mph 96% 0.00 in
03:54 41.1 °F 40.0 °F 29.83 in WSW 2.0 mph 4.0 mph 96% 0.00 in
03:59 41.2 °F 40.1 °F 29.83 in Calm   3.0 mph 96% 0.00 in
04:04 41.3 °F 40.2 °F 29.83 in WSW 3.0 mph 3.0 mph 96% 0.00 in
04:09 41.3 °F 40.2 °F 29.83 in West 4.0 mph 4.0 mph 96% 0.00 in
04:14 41.4 °F 40.3 °F 29.83 in SW 2.0 mph 4.0 mph 96% 0.00 in
04:19 41.5 °F 40.4 °F 29.82 in SW 1.0 mph 4.0 mph 96% 0.00 in
04:24 41.5 °F 40.4 °F 29.82 in SSW 1.0 mph 3.0 mph 96% 0.00 in
04:29 41.6 °F 40.5 °F 29.82 in SSW 1.0 mph 3.0 mph 96% 0.00 in
04:34 41.6 °F 40.5 °F 29.82 in SSW 1.0 mph 2.0 mph 96% 0.00 in
04:39 41.6 °F 40.5 °F 29.82 in Calm   2.0 mph 96% 0.00 in
04:44 41.7 °F 40.6 °F 29.82 in SSW 1.0 mph 3.0 mph 96% 0.00 in
04:49 41.8 °F 40.7 °F 29.82 in SSW 1.0 mph 3.0 mph 96% 0.00 in
04:54 41.8 °F 40.7 °F 29.81 in SSW 1.0 mph 3.0 mph 96% 0.00 in
04:59 41.9 °F 40.8 °F 29.81 in SSW 1.0 mph 3.0 mph 96% 0.00 in
05:04 42.0 °F 40.9 °F 29.81 in Calm   1.0 mph 96% 0.00 in
05:09 42.1 °F 41.0 °F 29.82 in SW 2.0 mph 3.0 mph 96% 0.00 in
05:14 42.2 °F 41.1 °F 29.82 in SW 1.0 mph 3.0 mph 96% 0.00 in
05:19 42.3 °F 41.2 °F 29.82 in Calm   3.0 mph 96% 0.00 in
05:24 42.3 °F 41.2 °F 29.82 in Calm     96% 0.00 in
05:29 42.4 °F 41.3 °F 29.81 in Calm     96% 0.00 in
05:34 42.4 °F 41.3 °F 29.81 in Calm     96% 0.00 in
05:39 42.4 °F 41.3 °F 29.81 in Calm     96% 0.00 in
05:44 42.4 °F 41.3 °F 29.82 in Calm     96% 0.00 in
05:49 42.4 °F 41.3 °F 29.82 in Calm     96% 0.00 in
05:54 42.4 °F 41.3 °F 29.82 in Calm     96% 0.00 in
05:59 42.5 °F 41.4 °F 29.83 in Calm     96% 0.00 in
06:04 42.4 °F 41.3 °F 29.82 in Calm     96% 0.00 in
06:09 42.5 °F 41.4 °F 29.82 in Calm     96% 0.00 in
06:14 42.5 °F 41.4 °F 29.82 in Calm     96% 0.00 in
06:19 42.5 °F 41.4 °F 29.81 in Calm     96% 0.00 in
06:24 42.6 °F 41.5 °F 29.82 in Calm     96% 0.00 in
06:29 42.7 °F 41.6 °F 29.82 in Calm     96% 0.00 in
06:34 42.7 °F 41.6 °F 29.82 in Calm     96% 0.00 in
06:39 42.8 °F 41.7 °F 29.82 in Calm     96% 0.00 in
06:44 42.8 °F 41.7 °F 29.81 in Calm     96% 0.00 in
06:49 42.9 °F 41.8 °F 29.81 in Calm     96% 0.00 in
06:54 42.9 °F 41.8 °F 29.81 in Calm     96% 0.00 in
06:59 42.9 °F 41.8 °F 29.81 in Calm     96% 0.00 in
07:04 43.0 °F 41.9 °F 29.81 in Calm     96% 0.00 in
07:09 43.1 °F 42.0 °F 29.81 in Calm     96% 0.00 in
07:14 43.1 °F 42.0 °F 29.81 in Calm     96% 0.00 in
07:19 43.2 °F 42.1 °F 29.80 in SSE 3.0 mph 4.0 mph 96% 0.00 in
07:24 43.2 °F 42.1 °F 29.81 in South 1.0 mph 4.0 mph 96% 0.00 in
07:29 43.2 °F 42.1 °F 29.80 in South 1.0 mph 3.0 mph 96% 0.00 in
07:34 43.2 °F 42.1 °F 29.81 in Calm     96% 0.00 in
07:39 43.2 °F 42.1 °F 29.81 in Calm     96% 0.00 in
07:44 43.2 °F 42.1 °F 29.81 in Calm     96% 0.00 in
07:49 43.2 °F 42.1 °F 29.81 in Calm     96% 0.00 in
07:54 43.2 °F 42.1 °F 29.81 in Calm     96% 0.00 in
07:59 43.3 °F 42.2 °F 29.80 in Calm     96% 0.00 in
08:04 43.3 °F 42.2 °F 29.80 in Calm     96% 0.00 in
08:09 43.4 °F 42.3 °F 29.79 in Calm     96% 0.00 in
08:14 43.4 °F 42.3 °F 29.79 in Calm     96% 0.00 in
08:19 43.5 °F 42.4 °F 29.80 in Calm     96% 0.00 in
08:24 43.6 °F 42.5 °F 29.80 in Calm     96% 0.00 in
08:29 43.6 °F 42.5 °F 29.81 in Calm     96% 0.00 in
08:34 43.8 °F 42.7 °F 29.80 in Calm     96% 0.00 in
08:39 43.9 °F 42.8 °F 29.80 in NE 2.0 mph 4.0 mph 96% 0.00 in
08:44 44.1 °F 43.0 °F 29.80 in Calm   3.0 mph 96% 0.00 in
08:49 44.2 °F 43.1 °F 29.79 in NE 1.0 mph 4.0 mph 96% 0.00 in
08:54 44.4 °F 43.6 °F 29.79 in NE 2.0 mph 4.0 mph 97% 0.00 in
08:59 44.5 °F 43.7 °F 29.80 in NE 2.0 mph 4.0 mph 97% 0.00 in
09:04 44.8 °F 43.7 °F 29.80 in NE 1.0 mph 4.0 mph 96% 0.00 in
09:09 44.9 °F 43.8 °F 29.79 in ENE 1.0 mph 4.0 mph 96% 0.00 in
09:14 45.0 °F 44.2 °F 29.79 in Calm     97% 0.00 in
09:19 45.1 °F 44.3 °F 29.79 in Calm   2.0 mph 97% 0.00 in
09:24 45.2 °F 44.1 °F 29.80 in SSE 2.0 mph 3.0 mph 96% 0.00 in
09:29 45.3 °F 44.2 °F 29.80 in Calm   2.0 mph 96% 0.00 in
09:34 45.4 °F 44.3 °F 29.80 in Calm     96% 0.00 in
09:39 45.8 °F 45.0 °F 29.80 in Calm     97% 0.00 in
09:44 45.8 °F 45.0 °F 29.79 in Calm     97% 0.00 in
09:49 45.9 °F 45.1 °F 29.80 in Calm     97% 0.00 in
09:54 45.9 °F 45.1 °F 29.80 in Calm     97% 0.00 in
09:59 46.5 °F 45.7 °F 29.79 in Calm     97% 0.00 in
10:04 46.7 °F 45.9 °F 29.79 in Calm     97% 0.00 in
10:09 46.7 °F 45.9 °F 29.79 in Calm     97% 0.00 in
10:14 46.9 °F 46.1 °F 29.80 in Calm     97% 0.00 in
10:19 46.9 °F 46.1 °F 29.80 in Calm     97% 0.00 in
10:24 47.8 °F 47.0 °F 29.78 in Calm     97% 0.00 in
10:29 48.2 °F 47.4 °F 29.78 in NE 1.0 mph 4.0 mph 97% 0.00 in
10:34 48.4 °F 47.6 °F 29.78 in NE 2.0 mph 4.0 mph 97% 0.00 in
10:39 48.7 °F 47.6 °F 29.77 in NE 2.0 mph 3.0 mph 96% 0.00 in
10:44 49.0 °F 47.9 °F 29.77 in Calm   3.0 mph 96% 0.00 in
10:49 49.4 °F 48.0 °F 29.77 in Calm     95% 0.00 in
10:54 50.1 °F 48.4 °F 29.78 in Calm     94% 0.00 in
10:59 50.7 °F 48.7 °F 29.78 in Calm     93% 0.00 in
11:04 51.4 °F 48.9 °F 29.78 in Calm     91% 0.00 in
11:09 52.6 °F 49.4 °F 29.77 in Calm     89% 0.00 in
11:14 53.3 °F 49.8 °F 29.77 in Calm     88% 0.00 in
11:19 53.4 °F 49.6 °F 29.77 in Calm     87% 0.00 in
11:24 53.6 °F 49.5 °F 29.76 in Calm     86% 0.00 in
11:29 53.6 °F 49.5 °F 29.77 in Calm   1.0 mph 86% 0.00 in
11:34 53.3 °F 49.2 °F 29.76 in WSW 1.0 mph 3.0 mph 86% 0.00 in
11:39 53.4 °F 49.3 °F 29.76 in WSW 1.0 mph 3.0 mph 86% 0.00 in
11:44 53.3 °F 49.2 °F 29.76 in West 1.0 mph 2.0 mph 86% 0.00 in
11:49 53.3 °F 48.9 °F 29.76 in Calm   1.0 mph 85% 0.00 in
11:54 53.5 °F 49.1 °F 29.76 in WSW 1.0 mph 3.0 mph 85% 0.00 in
11:59 53.6 °F 49.2 °F 29.76 in WSW 1.0 mph 3.0 mph 85% 0.00 in
12:04 53.6 °F 49.2 °F 29.76 in Calm   2.0 mph 85% 0.00 in
12:09 54.4 °F 50.0 °F 29.75 in Calm     85% 0.00 in
12:14 54.3 °F 49.6 °F 29.75 in Calm     84% 0.00 in
12:19 54.6 °F 50.2 °F 29.75 in Calm     85% 0.00 in
12:24 54.6 °F 49.9 °F 29.74 in Calm     84% 0.00 in
12:29 54.7 °F 50.0 °F 29.73 in Calm     84% 0.00 in
12:34 54.7 °F 50.3 °F 29.73 in Calm     85% 0.00 in
12:39 54.9 °F 50.2 °F 29.73 in Calm     84% 0.00 in
12:44 55.2 °F 50.1 °F 29.73 in Calm     83% 0.00 in
12:49 55.6 °F 50.5 °F 29.73 in Calm   2.0 mph 83% 0.00 in
12:54 55.6 °F 50.5 °F 29.73 in Calm     83% 0.00 in
12:59 55.9 °F 50.5 °F 29.73 in Calm     82% 0.00 in
13:04 55.9 °F 50.2 °F 29.73 in Calm     81% 0.00 in
13:09 56.2 °F 51.1 °F 29.72 in Calm     83% 0.00 in
13:14 56.3 °F 50.5 °F 29.72 in Calm     81% 0.00 in
13:19 56.4 °F 51.0 °F 29.72 in Calm     82% 0.00 in
13:24 56.5 °F 50.7 °F 29.71 in Calm     81% 0.00 in
13:29 57.0 °F 50.9 °F 29.71 in NE 1.0 mph 4.0 mph 80% 0.00 in
13:34 57.5 °F 51.4 °F 29.71 in East 1.0 mph 4.0 mph 80% 0.00 in
13:39 57.5 °F 51.7 °F 29.71 in SSE 1.0 mph 2.0 mph 81% 0.00 in
13:44 57.8 °F 51.3 °F 29.71 in East 1.0 mph 3.0 mph 79% 0.00 in
13:49 58.1 °F 51.6 °F 29.71 in ESE 1.0 mph 3.0 mph 79% 0.00 in
13:54 58.4 °F 51.9 °F 29.71 in ESE 1.0 mph 5.0 mph 79% 0.00 in
13:59 58.3 °F 51.8 °F 29.71 in SE 2.0 mph 3.0 mph 79% 0.00 in
14:04 58.2 °F 51.4 °F 29.71 in Calm   2.0 mph 78% 0.00 in
14:09 58.4 °F 51.6 °F 29.71 in NE 2.0 mph 3.0 mph 78% 0.00 in
14:14 58.4 °F 51.9 °F 29.71 in SE 3.0 mph 3.0 mph 79% 0.00 in
14:19 58.6 °F 52.1 °F 29.70 in Calm   3.0 mph 79% 0.00 in
14:24 58.7 °F 52.2 °F 29.70 in ENE 2.0 mph 5.0 mph 79% 0.00 in
14:29 59.6 °F 52.4 °F 29.70 in East 1.0 mph 5.0 mph 77% 0.00 in
14:34 59.6 °F 51.7 °F 29.70 in ESE 2.0 mph 5.0 mph 75% 0.00 in
14:39 59.7 °F 51.8 °F 29.70 in SE 2.0 mph 6.0 mph 75% 0.00 in
14:44 59.8 °F 51.5 °F 29.70 in ESE 2.0 mph 6.0 mph 74% 0.00 in
14:49 60.7 °F 52.4 °F 29.70 in ESE 2.0 mph 5.0 mph 74% 0.00 in
14:54 60.7 °F 52.4 °F 29.69 in SE 2.0 mph 5.0 mph 74% 0.00 in
14:59 60.6 °F 51.1 °F 29.69 in South 2.0 mph 7.0 mph 71% 0.00 in
15:04 60.6 °F 51.1 °F 29.69 in SSE 1.0 mph 5.0 mph 71% 0.00 in
15:09 60.9 °F 51.8 °F 29.69 in Calm   3.0 mph 72% 0.00 in
15:14 60.3 °F 51.2 °F 29.69 in ESE 1.0 mph 5.0 mph 72% 0.00 in
15:19 60.0 °F 51.3 °F 29.69 in Calm   3.0 mph 73% 0.00 in
15:24 59.7 °F 51.0 °F 29.69 in East 2.0 mph 5.0 mph 73% 0.00 in
15:29 59.6 °F 50.9 °F 29.69 in Calm   3.0 mph 73% 0.00 in
15:34 59.6 °F 50.9 °F 29.69 in ESE 1.0 mph 3.0 mph 73% 0.00 in
15:39 59.6 °F 50.9 °F 29.69 in East 1.0 mph 3.0 mph 73% 0.00 in
15:44 59.5 °F 50.8 °F 29.69 in ENE 1.0 mph 3.0 mph 73% 0.00 in
15:49 59.6 °F 50.9 °F 29.69 in Calm   3.0 mph 73% 0.00 in
15:54 59.4 °F 51.1 °F 29.69 in Calm   2.0 mph 74% 0.00 in
15:59 59.0 °F 50.7 °F 29.69 in Calm     74% 0.00 in
16:04 58.8 °F 50.5 °F 29.69 in Calm     74% 0.00 in
16:09 58.4 °F 50.5 °F 29.69 in Calm     75% 0.00 in
16:14 58.1 °F 50.6 °F 29.69 in Calm     76% 0.00 in
16:19 57.9 °F 50.4 °F 29.69 in NE 2.0 mph 3.0 mph 76% 0.00 in
16:24 57.7 °F 50.2 °F 29.68 in NE 2.0 mph 3.0 mph 76% 0.00 in
16:29 57.4 °F 50.2 °F 29.68 in NE 2.0 mph 3.0 mph 77% 0.00 in
16:34 57.2 °F 50.1 °F 29.68 in NE 1.0 mph 4.0 mph 77% 0.00 in
16:39 56.8 °F 50.0 °F 29.68 in NE 2.0 mph 4.0 mph 78% 0.00 in
16:44 56.7 °F 49.9 °F 29.68 in NE 2.0 mph 4.0 mph 78% 0.00 in
16:49 56.5 °F 49.7 °F 29.68 in NE 2.0 mph 4.0 mph 78% 0.00 in
16:54 56.3 °F 49.9 °F 29.68 in NE 2.0 mph 4.0 mph 79% 0.00 in
16:59 56.0 °F 49.6 °F 29.68 in NE 1.0 mph 4.0 mph 79% 0.00 in
17:04 55.9 °F 49.8 °F 29.68 in NE 1.0 mph 3.0 mph 80% 0.00 in
17:09 55.7 °F 50.0 °F 29.68 in NE 2.0 mph 3.0 mph 81% 0.00 in
17:14 55.7 °F 50.0 °F 29.68 in NE 1.0 mph 4.0 mph 81% 0.00 in
17:19 55.5 °F 50.1 °F 29.68 in NE 1.0 mph 3.0 mph 82% 0.00 in
17:24 55.4 °F 50.0 °F 29.68 in NE 2.0 mph 3.0 mph 82% 0.00 in
17:29 55.2 °F 49.8 °F 29.68 in NE 1.0 mph 3.0 mph 82% 0.00 in
17:34 55.0 °F 49.9 °F 29.68 in Calm   3.0 mph 83% 0.00 in
17:39 54.9 °F 49.8 °F 29.68 in NNE 1.0 mph 3.0 mph 83% 0.00 in
17:44 54.7 °F 49.6 °F 29.68 in Calm   2.0 mph 83% 0.00 in
17:49 54.3 °F 49.6 °F 29.68 in NNE 1.0 mph 2.0 mph 84% 0.00 in
17:54 54.4 °F 49.7 °F 29.68 in North 1.0 mph 3.0 mph 84% 0.00 in
17:59 54.7 °F 49.6 °F 29.69 in NE 1.0 mph 3.0 mph 83% 0.00 in
18:04 54.9 °F 49.8 °F 29.68 in NE 1.0 mph 3.0 mph 83% 0.00 in
18:09 54.9 °F 49.5 °F 29.69 in NE 1.0 mph 3.0 mph 82% 0.00 in
18:14 54.9 °F 49.5 °F 29.68 in ENE 2.0 mph 3.0 mph 82% 0.00 in
18:19 54.7 °F 49.3 °F 29.68 in Calm   1.0 mph 82% 0.00 in
18:24 54.6 °F 49.2 °F 29.69 in Calm     82% 0.00 in
18:29 54.6 °F 49.2 °F 29.68 in Calm     82% 0.00 in
18:34 54.3 °F 48.9 °F 29.69 in Calm     82% 0.00 in
18:39 53.9 °F 48.9 °F 29.69 in Calm     83% 0.00 in
18:44 53.6 °F 48.9 °F 29.69 in Calm     84% 0.00 in
18:49 53.2 °F 48.5 °F 29.69 in Calm     84% 0.00 in
18:54 53.0 °F 48.9 °F 29.69 in Calm     86% 0.00 in
18:59 53.1 °F 48.7 °F 29.69 in Calm     85% 0.00 in
19:04 53.3 °F 48.9 °F 29.69 in Calm     85% 0.00 in
19:09 52.7 °F 48.3 °F 29.69 in Calm     85% 0.00 in
19:14 52.3 °F 48.2 °F 29.69 in Calm     86% 0.00 in
19:19 52.0 °F 48.3 °F 29.69 in Calm     87% 0.00 in
19:24 51.8 °F 48.1 °F 29.70 in Calm     87% 0.00 in
19:29 51.3 °F 47.6 °F 29.70 in Calm     87% 0.00 in
19:34 51.1 °F 47.7 °F 29.70 in Calm     88% 0.00 in
19:39 51.0 °F 47.9 °F 29.69 in Calm     89% 0.00 in
19:44 51.1 °F 48.0 °F 29.70 in Calm     89% 0.00 in
19:49 51.0 °F 47.9 °F 29.69 in Calm     89% 0.00 in
19:54 50.8 °F 47.7 °F 29.69 in Calm     89% 0.00 in
19:59 50.9 °F 48.1 °F 29.69 in Calm     90% 0.00 in
20:04 50.7 °F 47.9 °F 29.69 in Calm     90% 0.00 in
20:09 50.6 °F 47.8 °F 29.69 in Calm     90% 0.00 in
20:14 50.5 °F 47.7 °F 29.69 in Calm     90% 0.00 in
20:19 50.4 °F 47.6 °F 29.69 in Calm     90% 0.00 in
20:24 50.1 °F 47.3 °F 29.69 in Calm     90% 0.00 in
20:29 50.0 °F 47.5 °F 29.69 in Calm     91% 0.00 in
20:34 50.0 °F 47.5 °F 29.69 in Calm     91% 0.00 in
20:39 49.8 °F 47.3 °F 29.69 in Calm     91% 0.00 in
20:44 49.7 °F 47.2 °F 29.69 in Calm     91% 0.00 in
20:49 49.5 °F 47.0 °F 29.69 in Calm     91% 0.00 in
20:54 49.4 °F 47.2 °F 29.69 in Calm     92% 0.00 in
20:59 49.4 °F 47.2 °F 29.69 in Calm     92% 0.00 in
21:04 49.2 °F 47.0 °F 29.69 in Calm     92% 0.00 in
21:09 49.2 °F 47.0 °F 29.70 in Calm     92% 0.00 in
21:14 49.2 °F 47.0 °F 29.70 in Calm     92% 0.00 in
21:19 49.2 °F 47.0 °F 29.70 in Calm     92% 0.00 in
21:24 49.2 °F 47.0 °F 29.70 in Calm     92% 0.00 in
21:29 49.2 °F 47.3 °F 29.70 in Calm     93% 0.00 in
21:34 49.1 °F 47.2 °F 29.70 in Calm     93% 0.00 in
21:39 49.1 °F 47.2 °F 29.70 in Calm     93% 0.00 in
21:44 49.0 °F 46.8 °F 29.69 in Calm     92% 0.00 in
21:49 49.0 °F 47.1 °F 29.69 in Calm     93% 0.00 in
21:54 49.0 °F 47.1 °F 29.69 in Calm     93% 0.00 in
21:59 49.0 °F 47.1 °F 29.68 in Calm     93% 0.00 in
22:04 49.2 °F 47.3 °F 29.68 in Calm     93% 0.00 in
22:09 49.0 °F 47.1 °F 29.68 in Calm     93% 0.00 in
22:14 48.9 °F 47.0 °F 29.68 in Calm     93% 0.00 in
22:19 48.5 °F 46.3 °F 29.68 in Calm     92% 0.00 in
22:24 48.1 °F 46.2 °F 29.68 in Calm     93% 0.00 in
22:29 47.9 °F 46.0 °F 29.68 in Calm     93% 0.00 in
22:34 47.8 °F 45.9 °F 29.68 in Calm     93% 0.00 in
22:39 48.0 °F 46.1 °F 29.68 in Calm     93% 0.00 in
22:44 47.7 °F 45.8 °F 29.68 in Calm     93% 0.00 in
22:49 47.1 °F 45.2 °F 29.68 in Calm     93% 0.00 in
22:54 46.8 °F 44.9 °F 29.68 in Calm     93% 0.00 in
22:59 46.7 °F 44.8 °F 29.68 in Calm     93% 0.00 in
23:04 46.5 °F 44.6 °F 29.68 in Calm     93% 0.00 in
23:09 46.4 °F 44.8 °F 29.68 in Calm     94% 0.00 in
23:14 46.1 °F 44.5 °F 29.68 in Calm     94% 0.00 in
23:19 46.0 °F 44.4 °F 29.68 in Calm     94% 0.00 in
23:24 46.0 °F 44.4 °F 29.68 in Calm     94% 0.00 in
23:29 46.0 °F 44.4 °F 29.68 in Calm     94% 0.00 in
23:34 45.9 °F 44.3 °F 29.67 in Calm     94% 0.00 in
23:39 45.8 °F 44.2 °F 29.68 in Calm     94% 0.00 in
23:44 46.3 °F 44.9 °F 29.68 in Calm     95% 0.00 in
23:49 46.5 °F 45.1 °F 29.68 in Calm     95% 0.00 in
23:54 46.2 °F 44.6 °F 29.68 in Calm     94% 0.00 in
23:59 46.3 °F 44.9 °F 29.68 in Calm     95% 0.00 in
Buffalo, New York, USA
Compliments of Weather Underground - 2.5 mb